Nimbus Weather Services

Informe meteorológico para Carrasco, Uruguay. El informe se hizo hace 11 minutos, a las 18:00 UTC. El viento soplaba a una velocidad de 4.1 m/s (9.2 millas por hora) del oeste-noroeste (290°). La temperatura era 17 °C (63 °F), con un punto de rocío de 10 °C (50 °F). La presión atmosférica era 1021 hPa (30.15 inHg). Había una humedad relativa del 63.4%. Cielo: sin nubes por debajo de 1500 metros (5000 pies) y sin presencia de cumulusnimbos. En aquel momento la visibilidad global era mayor de 10 kilómetros (6.2 millas).

La clave METAR es: SUMU 231800Z 29008KT CAVOK 17/10 Q1021 NOSIG

Consulta realizada el Miércoles 23 de Mayo de 2018 15:11. Tiempo usado para generar esta pagina:2,070 ms.